createdAt,value
2023-03-10T00:00:40.184Z,35.01
2023-03-10T00:03:07.502Z,35.11
2023-03-10T00:05:34.295Z,34.89
2023-03-10T00:08:01.331Z,34.92
2023-03-10T00:10:28.110Z,34.94
2023-03-10T00:12:54.703Z,34.97
2023-03-10T00:15:21.211Z,34.94
2023-03-10T00:17:50.102Z,35.11
2023-03-10T00:20:17.095Z,34.92
2023-03-10T00:22:44.191Z,34.73
2023-03-10T00:25:11.023Z,34.87
2023-03-10T00:27:38.608Z,34.83
2023-03-10T00:30:05.921Z,34.74
2023-03-10T00:32:36.042Z,34.70
2023-03-10T00:35:04.538Z,35.01
2023-03-10T00:37:31.144Z,34.27
2023-03-10T00:39:57.821Z,34.60
2023-03-10T00:42:24.540Z,34.40
2023-03-10T00:44:51.776Z,34.94
2023-03-10T00:47:21.299Z,34.79
2023-03-10T00:49:48.348Z,34.68
2023-03-10T00:52:15.017Z,34.96
2023-03-10T00:54:42.354Z,34.66
2023-03-10T00:57:10.250Z,34.63
2023-03-10T00:59:49.442Z,34.86
2023-03-10T01:02:18.189Z,34.72
2023-03-10T01:04:44.829Z,34.53
2023-03-10T01:07:11.507Z,34.76
2023-03-10T01:09:38.136Z,34.64
2023-03-10T01:12:05.077Z,34.61
2023-03-10T01:14:32.375Z,34.73
2023-03-10T01:16:59.586Z,34.62
2023-03-10T01:19:26.161Z,34.59
2023-03-10T01:21:52.791Z,34.47
2023-03-10T01:24:19.442Z,34.86
2023-03-10T01:26:46.172Z,34.85
2023-03-10T01:29:12.774Z,34.72
2023-03-10T01:31:41.871Z,34.61
2023-03-10T01:34:08.617Z,34.46
2023-03-10T01:36:35.152Z,34.48
2023-03-10T01:39:01.796Z,34.63
2023-03-10T01:41:28.406Z,34.61
2023-03-10T01:43:56.607Z,34.45
2023-03-10T01:46:43.276Z,34.75
2023-03-10T01:49:17.911Z,34.62
2023-03-10T01:51:50.564Z,34.74
2023-03-10T01:54:23.005Z,34.68
2023-03-10T01:56:52.010Z,34.58
2023-03-10T01:59:20.627Z,34.27
2023-03-10T02:01:50.373Z,34.33
2023-03-10T02:04:24.931Z,34.54
2023-03-10T02:06:52.291Z,34.56
2023-03-10T02:09:20.854Z,34.52
2023-03-10T02:11:48.383Z,34.39
2023-03-10T02:14:15.184Z,34.66
2023-03-10T02:16:42.154Z,34.45
2023-03-10T02:19:20.760Z,34.34
2023-03-10T02:22:08.710Z,34.57
2023-03-10T02:24:53.884Z,34.56
2023-03-10T02:27:27.214Z,34.38
2023-03-10T02:29:59.260Z,34.37
2023-03-10T02:32:38.091Z,34.53
2023-03-10T02:35:06.364Z,34.36
2023-03-10T02:37:37.787Z,34.54
2023-03-10T02:40:23.663Z,34.49
2023-03-10T02:42:50.229Z,34.08
2023-03-10T02:45:16.794Z,34.12
2023-03-10T02:47:43.408Z,34.10
2023-03-10T02:50:12.411Z,34.12
2023-03-10T02:52:55.242Z,34.13
2023-03-10T02:55:21.919Z,34.12
2023-03-10T02:57:48.969Z,33.97
2023-03-10T03:00:16.282Z,34.00
2023-03-10T03:02:42.788Z,34.07
2023-03-10T03:05:09.707Z,34.11
2023-03-10T03:07:37.007Z,34.40
2023-03-10T03:10:04.456Z,34.55
2023-03-10T03:12:31.008Z,34.25
2023-03-10T03:14:57.624Z,34.57
2023-03-10T03:17:24.263Z,34.57
2023-03-10T03:19:51.208Z,34.54
2023-03-10T03:22:17.859Z,34.60
2023-03-10T03:24:44.588Z,34.72
2023-03-10T03:27:11.284Z,34.68
2023-03-10T03:29:38.197Z,34.41
2023-03-10T03:32:06.892Z,34.50
2023-03-10T03:34:34.941Z,34.33
2023-03-10T03:37:05.759Z,34.51
2023-03-10T03:39:36.545Z,34.33
2023-03-10T03:42:06.568Z,34.15
2023-03-10T03:44:42.549Z,34.48
2023-03-10T03:47:10.583Z,34.37
2023-03-10T03:49:38.966Z,34.10
2023-03-10T03:52:06.591Z,33.99
2023-03-10T03:54:33.814Z,34.44
2023-03-10T03:57:00.506Z,34.41
2023-03-10T03:59:27.427Z,34.38
2023-03-10T04:01:55.235Z,34.50
2023-03-10T04:04:22.360Z,34.62
2023-03-10T04:06:49.133Z,34.71
2023-03-10T04:09:18.137Z,34.65
2023-03-10T04:11:44.791Z,34.56
2023-03-10T04:14:11.747Z,34.61
2023-03-10T04:16:38.727Z,34.44
2023-03-10T04:19:07.663Z,34.68
2023-03-10T04:21:36.757Z,34.42
2023-03-10T04:24:04.847Z,34.48
2023-03-10T04:26:32.633Z,34.54
2023-03-10T04:28:59.840Z,34.47
2023-03-10T04:31:28.827Z,34.46
2023-03-10T04:33:56.847Z,34.46
2023-03-10T04:36:23.741Z,34.61
2023-03-10T04:38:54.484Z,34.52
2023-03-10T04:41:24.847Z,34.52
2023-03-10T04:43:51.471Z,34.26
2023-03-10T04:46:18.960Z,34.50
2023-03-10T04:48:46.268Z,34.59
2023-03-10T04:51:13.477Z,34.46
2023-03-10T04:53:51.691Z,34.21
2023-03-10T04:56:19.136Z,34.32
2023-03-10T04:58:46.768Z,34.22
2023-03-10T05:01:15.339Z,34.25
2023-03-10T05:03:46.566Z,34.02
2023-03-10T05:06:20.385Z,33.99
2023-03-10T05:09:05.033Z,34.11
2023-03-10T05:11:33.196Z,35.02
2023-03-10T05:14:00.457Z,35.12
2023-03-10T05:16:27.552Z,35.31
2023-03-10T05:18:54.739Z,35.21
2023-03-10T05:21:25.876Z,35.30
2023-03-10T05:23:54.738Z,35.81
2023-03-10T05:26:23.344Z,35.93
2023-03-10T05:28:50.013Z,36.23
2023-03-10T05:31:26.018Z,36.47
2023-03-10T05:33:57.255Z,36.30
2023-03-10T05:36:24.647Z,36.40
2023-03-10T05:38:51.394Z,36.45
2023-03-10T05:41:18.541Z,36.42
2023-03-10T05:43:48.906Z,36.37
2023-03-10T05:46:17.090Z,36.36
2023-03-10T05:48:50.412Z,36.27
2023-03-10T05:51:17.582Z,36.93
2023-03-10T05:53:47.220Z,36.91
2023-03-10T05:56:19.962Z,37.45
2023-03-10T05:58:53.314Z,37.28
2023-03-10T06:01:24.692Z,37.78
2023-03-10T06:03:51.459Z,37.99
2023-03-10T06:06:18.196Z,37.77
2023-03-10T06:08:44.816Z,37.91
2023-03-10T06:11:12.371Z,37.97
2023-03-10T06:13:41.719Z,37.58
2023-03-10T06:16:08.355Z,37.75
2023-03-10T06:18:35.369Z,37.51
2023-03-10T06:21:10.012Z,37.48
2023-03-10T06:23:37.738Z,37.39
2023-03-10T06:26:11.410Z,37.11
2023-03-10T06:28:39.849Z,37.02
2023-03-10T06:31:09.759Z,36.94
2023-03-10T06:33:36.623Z,36.88
2023-03-10T06:36:03.393Z,36.76
2023-03-10T06:38:30.614Z,36.66
2023-03-10T06:40:58.174Z,36.37
2023-03-10T06:43:25.683Z,36.44
2023-03-10T06:45:52.287Z,36.15
2023-03-10T06:48:19.022Z,35.87
2023-03-10T06:50:49.032Z,35.96
2023-03-10T06:53:18.066Z,36.51
2023-03-10T06:55:44.842Z,36.46
2023-03-10T06:58:11.752Z,37.22
2023-03-10T07:00:39.715Z,37.32
2023-03-10T07:03:06.809Z,37.30
2023-03-10T07:05:33.538Z,36.78
2023-03-10T07:08:00.100Z,36.78
2023-03-10T07:10:26.746Z,36.94
2023-03-10T07:12:56.652Z,37.05
2023-03-10T07:15:23.314Z,36.91
2023-03-10T07:17:50.086Z,36.98
2023-03-10T07:20:18.161Z,37.18
2023-03-10T07:22:44.982Z,37.20
2023-03-10T07:25:11.659Z,37.37
2023-03-10T07:27:38.295Z,37.49
2023-03-10T07:30:05.978Z,37.16
2023-03-10T07:32:32.817Z,37.36
2023-03-10T07:34:59.648Z,37.15
2023-03-10T07:37:26.237Z,36.95
2023-03-10T07:39:56.110Z,36.82
2023-03-10T07:42:23.480Z,36.89
2023-03-10T07:44:50.123Z,36.67
2023-03-10T07:47:16.850Z,36.68
2023-03-10T07:49:46.744Z,36.46
2023-03-10T07:52:15.326Z,36.78
2023-03-10T07:54:44.318Z,36.42
2023-03-10T07:57:15.077Z,36.21
2023-03-10T07:59:42.817Z,36.47
2023-03-10T08:02:14.026Z,36.21
2023-03-10T08:04:41.093Z,36.10
2023-03-10T08:07:08.621Z,35.94
2023-03-10T08:09:36.982Z,36.21
2023-03-10T08:12:03.952Z,35.79
2023-03-10T08:14:31.941Z,35.76
2023-03-10T08:16:59.016Z,36.03
2023-03-10T08:19:27.129Z,35.74
2023-03-10T08:22:02.215Z,35.59
2023-03-10T08:24:31.298Z,35.59
2023-03-10T08:26:57.932Z,35.74
2023-03-10T08:29:24.984Z,35.64
2023-03-10T08:31:51.558Z,35.58
2023-03-10T08:34:18.746Z,35.22
2023-03-10T08:36:45.480Z,35.38
2023-03-10T08:39:12.994Z,35.48
2023-03-10T08:41:45.526Z,35.35
2023-03-10T08:44:15.416Z,35.29
2023-03-10T08:46:46.662Z,35.01
2023-03-10T08:49:15.494Z,35.30
2023-03-10T08:51:42.549Z,34.91
2023-03-10T08:54:11.756Z,35.07
2023-03-10T08:56:38.571Z,34.86
2023-03-10T08:59:05.490Z,35.06
2023-03-10T09:01:34.166Z,34.91
2023-03-10T09:04:02.367Z,34.70
2023-03-10T09:06:32.720Z,34.73
2023-03-10T09:08:59.434Z,34.47
2023-03-10T09:11:31.534Z,34.60
2023-03-10T09:13:59.564Z,34.33
2023-03-10T09:16:28.523Z,34.27
2023-03-10T09:18:59.492Z,34.30
2023-03-10T09:21:27.741Z,34.36
2023-03-10T09:23:54.393Z,34.10
2023-03-10T09:26:21.851Z,34.26
2023-03-10T09:28:50.845Z,34.11
2023-03-10T09:31:20.706Z,34.27
2023-03-10T09:33:48.346Z,34.13
2023-03-10T09:36:15.932Z,33.93
2023-03-10T09:38:42.647Z,33.87
2023-03-10T09:41:34.228Z,34.12
2023-03-10T09:44:14.232Z,33.89
2023-03-10T09:46:53.075Z,33.85
2023-03-10T09:49:36.041Z,33.80
2023-03-10T09:52:19.537Z,33.66
2023-03-10T09:55:01.688Z,33.76
2023-03-10T09:57:29.093Z,33.82
2023-03-10T09:59:59.944Z,33.72
2023-03-10T10:02:32.933Z,33.58
2023-03-10T10:05:04.199Z,33.36
2023-03-10T10:07:42.488Z,33.46
2023-03-10T10:10:18.494Z,33.65
2023-03-10T10:12:47.194Z,33.56
2023-03-10T10:15:21.840Z,33.56
2023-03-10T10:18:02.635Z,33.44
2023-03-10T10:20:40.361Z,33.41
2023-03-10T10:23:19.833Z,33.22
2023-03-10T10:25:48.231Z,33.40
2023-03-10T10:28:21.027Z,33.20
2023-03-10T10:30:48.482Z,33.17
2023-03-10T10:33:16.390Z,33.20
2023-03-10T10:35:59.711Z,33.23
2023-03-10T10:38:31.678Z,33.04
2023-03-10T10:41:07.304Z,33.21
2023-03-10T10:43:43.494Z,33.17
2023-03-10T10:46:12.581Z,32.90
2023-03-10T10:48:51.359Z,33.03
2023-03-10T10:51:29.898Z,33.02
2023-03-10T10:53:58.430Z,33.04
2023-03-10T10:56:25.273Z,33.00
2023-03-10T10:59:18.464Z,33.12
2023-03-10T11:01:48.181Z,33.01
2023-03-10T11:04:17.141Z,32.84
2023-03-10T11:06:44.690Z,33.03
2023-03-10T11:09:13.002Z,32.81
2023-03-10T11:11:51.518Z,32.97
2023-03-10T11:14:39.731Z,32.87
2023-03-10T11:17:31.912Z,32.67
2023-03-10T11:20:07.827Z,32.76
2023-03-10T11:22:53.157Z,32.67
2023-03-10T11:25:47.807Z,32.53
2023-03-10T11:28:33.920Z,32.59
2023-03-10T11:31:21.742Z,32.70
2023-03-10T11:34:17.412Z,32.38
2023-03-10T11:36:58.016Z,32.49
2023-03-10T11:39:51.261Z,32.47
2023-03-10T11:42:36.167Z,32.34
2023-03-10T11:45:24.558Z,32.39
2023-03-10T11:47:57.124Z,32.39
2023-03-10T11:50:53.206Z,32.62
2023-03-10T11:53:33.416Z,32.30
2023-03-10T11:56:01.922Z,32.48
2023-03-10T11:58:55.568Z,32.40
2023-03-10T12:01:30.675Z,32.37
2023-03-10T12:04:30.139Z,32.49
2023-03-10T12:07:13.188Z,32.40
2023-03-10T12:09:44.030Z,32.21
2023-03-10T12:12:15.138Z,32.38
2023-03-10T12:14:43.734Z,32.31
2023-03-10T12:17:15.558Z,32.29
2023-03-10T12:20:12.074Z,32.54
2023-03-10T12:22:49.212Z,32.37
2023-03-10T12:25:28.191Z,32.31
2023-03-10T12:28:19.154Z,32.46
2023-03-10T12:31:03.306Z,32.31
2023-03-10T12:33:32.707Z,32.38
2023-03-10T12:36:27.935Z,32.18
2023-03-10T12:39:22.022Z,32.30
2023-03-10T12:41:50.688Z,32.27
2023-03-10T12:44:50.168Z,32.42
2023-03-10T12:47:22.781Z,32.37
2023-03-10T12:50:04.636Z,32.21
2023-03-10T12:52:48.032Z,32.38
2023-03-10T12:55:25.884Z,32.43
2023-03-10T12:57:52.530Z,32.42
2023-03-10T13:00:40.704Z,32.17
2023-03-10T13:03:10.173Z,32.25
2023-03-10T13:05:55.782Z,32.36
2023-03-10T13:08:45.077Z,32.07
2023-03-10T13:11:27.535Z,32.35
2023-03-10T13:13:59.697Z,32.35
2023-03-10T13:16:26.320Z,32.25
2023-03-10T13:18:54.084Z,32.27
2023-03-10T13:21:33.030Z,32.13
2023-03-10T13:24:01.441Z,32.32
2023-03-10T13:26:28.727Z,32.44
2023-03-10T13:29:00.842Z,32.05
2023-03-10T13:31:31.948Z,32.31
2023-03-10T13:34:12.952Z,32.18
2023-03-10T13:36:40.731Z,32.15
2023-03-10T13:39:20.247Z,32.33
2023-03-10T13:41:53.846Z,32.22
2023-03-10T13:44:20.469Z,32.16
2023-03-10T13:46:53.007Z,32.44
2023-03-10T13:49:24.610Z,32.24
2023-03-10T13:51:59.222Z,32.20
2023-03-10T13:54:28.559Z,32.09
2023-03-10T13:57:00.681Z,32.23
2023-03-10T13:59:29.539Z,32.05
2023-03-10T14:01:58.858Z,32.10
2023-03-10T14:04:46.851Z,32.15
2023-03-10T14:07:23.387Z,32.01
2023-03-10T14:10:05.333Z,32.14
2023-03-10T14:12:44.270Z,32.22
2023-03-10T14:15:20.090Z,32.34
2023-03-10T14:17:50.930Z,32.24
2023-03-10T14:20:42.098Z,32.61
2023-03-10T14:23:25.808Z,32.67
2023-03-10T14:25:54.702Z,32.74
2023-03-10T14:28:30.774Z,32.67
2023-03-10T14:30:58.774Z,32.95
2023-03-10T14:33:25.401Z,32.69
2023-03-10T14:35:52.141Z,32.73
2023-03-10T14:38:19.517Z,32.72
2023-03-10T14:40:54.755Z,32.70
2023-03-10T14:43:27.379Z,32.91
2023-03-10T14:45:56.370Z,32.82
2023-03-10T14:48:25.332Z,32.95
2023-03-10T14:50:52.190Z,32.90
2023-03-10T14:53:20.915Z,32.75
2023-03-10T14:55:52.146Z,32.61
2023-03-10T14:58:21.884Z,32.88
2023-03-10T15:00:51.351Z,32.99
2023-03-10T15:03:18.098Z,32.76
2023-03-10T15:05:49.136Z,32.95
2023-03-10T15:08:17.536Z,32.72
2023-03-10T15:10:50.427Z,32.84
2023-03-10T15:13:19.668Z,32.99
2023-03-10T15:15:47.928Z,33.06
2023-03-10T15:18:22.849Z,32.95
2023-03-10T15:20:50.302Z,33.03
2023-03-10T15:23:20.041Z,33.24
2023-03-10T15:25:48.728Z,32.96
2023-03-10T15:28:15.810Z,33.14
2023-03-10T15:30:45.275Z,32.85
2023-03-10T15:33:11.947Z,33.06
2023-03-10T15:35:41.487Z,32.53
2023-03-10T15:38:08.719Z,33.08
2023-03-10T15:40:39.573Z,33.15
2023-03-10T15:43:06.300Z,32.95
2023-03-10T15:45:32.890Z,33.04
2023-03-10T15:47:59.799Z,32.87
2023-03-10T15:50:27.472Z,32.97
2023-03-10T15:52:58.671Z,32.89
2023-03-10T15:55:27.341Z,32.99
2023-03-10T15:57:54.207Z,32.91
2023-03-10T16:00:23.557Z,32.71
2023-03-10T16:02:51.131Z,32.95
2023-03-10T16:05:18.678Z,33.02
2023-03-10T16:07:45.269Z,32.71
2023-03-10T16:10:14.376Z,32.80
2023-03-10T16:12:41.043Z,32.91
2023-03-10T16:15:08.458Z,33.00
2023-03-10T16:17:35.110Z,32.89
2023-03-10T16:20:06.560Z,32.97
2023-03-10T16:22:33.386Z,32.80
2023-03-10T16:25:00.053Z,32.92
2023-03-10T16:27:26.847Z,33.02
2023-03-10T16:29:53.386Z,33.21
2023-03-10T16:32:20.313Z,32.90
2023-03-10T16:34:47.257Z,33.04
2023-03-10T16:37:13.895Z,33.00
2023-03-10T16:39:40.479Z,32.91
2023-03-10T16:42:08.442Z,33.21
2023-03-10T16:44:34.950Z,32.92
2023-03-10T16:47:01.612Z,33.12
2023-03-10T16:49:28.124Z,33.30
2023-03-10T16:51:54.714Z,33.18
2023-03-10T16:54:22.622Z,33.17
2023-03-10T16:56:52.400Z,33.48
2023-03-10T16:59:24.751Z,33.28
2023-03-10T17:01:51.840Z,33.39
2023-03-10T17:04:19.368Z,33.46
2023-03-10T17:06:47.035Z,33.31
2023-03-10T17:09:14.625Z,33.50
2023-03-10T17:11:46.326Z,33.65
2023-03-10T17:14:15.576Z,33.52
2023-03-10T17:16:43.270Z,33.54
2023-03-10T17:19:26.274Z,33.59
2023-03-10T17:21:56.314Z,33.58
2023-03-10T17:24:23.559Z,33.66
2023-03-10T17:26:50.569Z,33.86
2023-03-10T17:29:18.058Z,33.79
2023-03-10T17:31:48.814Z,33.84
2023-03-10T17:34:16.175Z,33.95
2023-03-10T17:36:43.422Z,33.90
2023-03-10T17:39:18.974Z,33.86
2023-03-10T17:41:46.319Z,34.05
2023-03-10T17:44:12.943Z,33.98
2023-03-10T17:46:42.839Z,33.92
2023-03-10T17:49:12.325Z,34.08
2023-03-10T17:51:44.188Z,33.88
2023-03-10T17:54:17.526Z,33.83
2023-03-10T17:56:44.259Z,34.05
2023-03-10T17:59:16.143Z,34.01
2023-03-10T18:01:44.274Z,34.08
2023-03-10T18:04:12.049Z,34.34
2023-03-10T18:06:38.671Z,34.46
2023-03-10T18:09:08.446Z,34.40
2023-03-10T18:11:35.479Z,34.57
2023-03-10T18:14:03.778Z,34.41
2023-03-10T18:16:37.351Z,34.90
2023-03-10T18:19:05.027Z,35.82
2023-03-10T18:21:32.120Z,36.42
2023-03-10T18:23:59.020Z,36.58
2023-03-10T18:26:30.264Z,36.62
2023-03-10T18:29:00.554Z,36.81
2023-03-10T18:31:30.583Z,36.60
2023-03-10T18:33:57.356Z,36.66
2023-03-10T18:36:25.101Z,36.96
2023-03-10T18:38:55.283Z,36.89
2023-03-10T18:41:27.802Z,36.96
2023-03-10T18:43:54.453Z,37.25
2023-03-10T18:46:22.217Z,37.40
2023-03-10T18:48:55.318Z,37.21
2023-03-10T18:51:27.373Z,37.38
2023-03-10T18:53:54.475Z,37.22
2023-03-10T18:56:21.060Z,37.28
2023-03-10T18:58:47.626Z,37.16
2023-03-10T19:01:14.920Z,37.49
2023-03-10T19:03:41.581Z,37.76
2023-03-10T19:06:11.733Z,37.82
2023-03-10T19:08:39.749Z,37.62
2023-03-10T19:11:07.096Z,37.69
2023-03-10T19:13:34.662Z,37.58
2023-03-10T19:16:08.422Z,37.31
2023-03-10T19:18:35.883Z,37.47
2023-03-10T19:21:02.978Z,37.03
2023-03-10T19:23:32.131Z,37.14
2023-03-10T19:25:58.658Z,36.92
2023-03-10T19:28:25.456Z,36.91
2023-03-10T19:30:52.095Z,36.81
2023-03-10T19:33:18.761Z,36.81
2023-03-10T19:35:45.620Z,36.64
2023-03-10T19:38:15.942Z,36.50
2023-03-10T19:40:46.498Z,36.64
2023-03-10T19:43:13.300Z,36.29
2023-03-10T19:45:42.792Z,36.76
2023-03-10T19:48:15.600Z,37.07
2023-03-10T19:50:42.416Z,37.30
2023-03-10T19:53:10.051Z,37.30
2023-03-10T19:55:38.235Z,37.22
2023-03-10T19:58:12.191Z,36.96
2023-03-10T20:00:38.991Z,36.86
2023-03-10T20:03:05.922Z,36.87
2023-03-10T20:05:33.152Z,36.68
2023-03-10T20:08:00.506Z,36.87
2023-03-10T20:10:27.305Z,36.79
2023-03-10T20:12:53.985Z,36.76
2023-03-10T20:15:23.256Z,36.79
2023-03-10T20:17:53.218Z,36.65
2023-03-10T20:20:23.538Z,36.57
2023-03-10T20:22:52.589Z,36.71
2023-03-10T20:25:22.879Z,36.29
2023-03-10T20:27:55.628Z,36.37
2023-03-10T20:30:39.452Z,36.66
2023-03-10T20:33:11.301Z,37.01
2023-03-10T20:35:38.617Z,37.84
2023-03-10T20:38:12.213Z,38.05
2023-03-10T20:40:42.964Z,38.58
2023-03-10T20:43:14.691Z,38.66
2023-03-10T20:45:48.533Z,39.19
2023-03-10T20:48:21.017Z,39.43
2023-03-10T20:50:53.996Z,39.41
2023-03-10T20:53:23.743Z,39.69
2023-03-10T20:55:53.054Z,39.97
2023-03-10T20:58:20.210Z,40.05
2023-03-10T21:00:48.080Z,39.95
2023-03-10T21:03:17.506Z,40.06
2023-03-10T21:05:44.738Z,40.15
2023-03-10T21:08:12.976Z,40.15
2023-03-10T21:10:41.397Z,39.92
2023-03-10T21:13:08.541Z,39.64
2023-03-10T21:15:35.382Z,39.14
2023-03-10T21:18:02.491Z,38.75
2023-03-10T21:20:33.922Z,38.25
2023-03-10T21:23:02.520Z,38.00
2023-03-10T21:25:31.094Z,37.81
2023-03-10T21:28:00.199Z,37.42
2023-03-10T21:30:29.096Z,37.57
2023-03-10T21:32:56.835Z,37.42
2023-03-10T21:35:30.382Z,37.29
2023-03-10T21:38:00.125Z,37.23
2023-03-10T21:40:27.075Z,37.07
2023-03-10T21:42:53.940Z,37.01
2023-03-10T21:45:25.887Z,36.97
2023-03-10T21:47:52.604Z,36.60
2023-03-10T21:50:19.413Z,36.49
2023-03-10T21:52:46.407Z,36.41
2023-03-10T21:55:20.581Z,36.39
2023-03-10T21:57:53.379Z,36.33
2023-03-10T22:00:23.237Z,36.41
2023-03-10T22:02:51.603Z,36.18
2023-03-10T22:05:20.227Z,36.05
2023-03-10T22:07:47.978Z,36.16
2023-03-10T22:10:15.891Z,35.98
2023-03-10T22:12:43.052Z,36.28
2023-03-10T22:15:24.763Z,36.06
2023-03-10T22:17:52.161Z,36.04
2023-03-10T22:20:22.295Z,36.02
2023-03-10T22:22:49.479Z,36.05
2023-03-10T22:25:16.349Z,35.76
2023-03-10T22:27:44.901Z,35.96
2023-03-10T22:30:14.070Z,35.91
2023-03-10T22:32:41.249Z,35.83
2023-03-10T22:35:10.378Z,35.93
2023-03-10T22:37:38.543Z,35.92
2023-03-10T22:40:06.148Z,35.76
2023-03-10T22:42:32.765Z,35.96
2023-03-10T22:45:00.846Z,35.90
2023-03-10T22:47:27.446Z,35.69
2023-03-10T22:49:54.501Z,35.88
2023-03-10T22:52:21.225Z,35.87
2023-03-10T22:54:47.782Z,35.84
2023-03-10T22:57:15.247Z,35.54
2023-03-10T22:59:41.953Z,35.65
2023-03-10T23:02:10.621Z,35.59
2023-03-10T23:04:37.236Z,35.61
2023-03-10T23:07:04.387Z,35.78
2023-03-10T23:09:30.917Z,35.74
2023-03-10T23:11:57.813Z,35.46
2023-03-10T23:14:25.188Z,35.43
2023-03-10T23:16:51.760Z,35.75
2023-03-10T23:19:18.554Z,35.38
2023-03-10T23:21:45.266Z,35.64
2023-03-10T23:24:11.780Z,35.55
2023-03-10T23:26:38.386Z,35.75
2023-03-10T23:29:05.052Z,35.42
2023-03-10T23:31:31.802Z,35.37
2023-03-10T23:33:58.424Z,35.54
2023-03-10T23:36:25.086Z,35.64
2023-03-10T23:38:51.745Z,35.37
2023-03-10T23:41:21.367Z,35.32
2023-03-10T23:43:47.976Z,35.32
2023-03-10T23:46:15.030Z,35.46
2023-03-10T23:48:41.659Z,35.31
2023-03-10T23:51:13.836Z,35.49
2023-03-10T23:53:43.069Z,35.61
2023-03-10T23:56:10.778Z,35.28
2023-03-10T23:58:40.397Z,35.50
